Time;durP1;ratioP1;P1;durP2;ratioP2;P2;SDS_P1;SDS_P2;PMS_P1;PMS_P2;Temp;Humidity;BMP_temperature;BMP_pressure;BME280_temperature;BME280_humidity;BME280_pressure;Samples;Min_cycle;Max_cycle;Signal;HPM_P1;HPM_P2
2022/11/25 00:01:34;;;;;;;32.90;9.15;;;10.90;99.90;;;11.12;100.00;100678.94;5115512;28;20048;-66
2022/11/25 00:04:03;;;;;;;26.63;8.40;;;11.00;99.90;;;11.19;100.00;100699.13;5115434;28;20057;-66
2022/11/25 00:06:34;;;;;;;30.92;8.30;;;11.10;99.90;;;11.26;100.00;100669.09;5115421;28;20075;-67
2022/11/25 00:09:05;;;;;;;24.00;8.63;;;11.20;99.90;;;11.49;100.00;100668.81;5115409;28;20150;-66
2022/11/25 00:11:37;;;;;;;22.92;7.63;;;11.30;99.90;;;11.62;100.00;100675.72;5115507;28;20073;-66
2022/11/25 00:14:07;;;;;;;24.05;7.88;;;11.40;99.90;;;11.55;100.00;100659.03;5115292;28;20370;-67
2022/11/25 00:16:35;;;;;;;18.35;7.18;;;11.50;99.90;;;11.67;100.00;100664.22;5115468;28;20552;-66
2022/11/25 00:19:04;;;;;;;20.70;7.78;;;11.60;99.90;;;11.67;100.00;100666.84;5115452;28;20470;-66
2022/11/25 00:21:34;;;;;;;23.00;7.32;;;11.50;99.90;;;11.64;100.00;100661.56;5115086;28;20043;-66
2022/11/25 00:24:07;;;;;;;20.48;7.72;;;11.60;99.90;;;11.59;100.00;100657.22;5115076;28;20111;-66
2022/11/25 00:26:37;;;;;;;23.70;7.53;;;11.50;99.90;;;11.69;100.00;100662.41;5115084;28;20039;-66
2022/11/25 00:29:07;;;;;;;23.17;7.80;;;11.60;99.90;;;11.74;100.00;100673.84;5115198;28;20044;-66
2022/11/25 00:31:38;;;;;;;20.55;7.68;;;11.60;99.90;;;11.71;100.00;100679.16;5115133;28;20112;-66
2022/11/25 00:34:07;;;;;;;19.67;7.97;;;11.50;99.90;;;11.83;100.00;100672.84;5115461;28;20127;-67
2022/11/25 00:36:37;;;;;;;23.35;7.60;;;11.60;99.90;;;11.79;100.00;100677.31;5114794;28;20374;-66
2022/11/25 00:39:09;;;;;;;20.55;7.82;;;11.70;99.90;;;11.76;100.00;100679.13;5096807;28;20066;-65
2022/11/25 00:44:38;;;;;;;19.63;6.90;;;11.70;99.90;;;11.87;100.00;100684.28;5114984;28;20063;-65
2022/11/25 00:47:10;;;;;;;22.95;8.50;;;11.70;99.90;;;11.87;100.00;100686.94;5114936;28;20115;-64
2022/11/25 00:49:42;;;;;;;24.23;8.63;;;11.70;99.90;;;11.82;100.00;100683.47;5096534;28;20147;-63
2022/11/25 00:52:15;;;;;;;21.08;8.00;;;11.70;99.90;;;11.90;100.00;100690.44;5114658;28;20441;-64
2022/11/25 00:54:44;;;;;;;23.65;8.77;;;11.70;99.90;;;11.93;100.00;100686.84;5096459;28;20054;-64
2022/11/25 00:57:15;;;;;;;26.65;8.48;;;11.80;99.90;;;11.99;100.00;100692.06;5114620;28;20485;-63
2022/11/25 00:59:43;;;;;;;20.20;8.18;;;11.80;99.90;;;11.95;100.00;100682.41;5096456;28;20052;-63
2022/11/25 01:02:13;;;;;;;26.65;8.45;;;11.80;99.90;;;11.91;100.00;100686.88;5096278;28;20043;-63
2022/11/25 01:04:42;;;;;;;23.25;8.85;;;11.80;99.90;;;10.30;100.00;100416.16;5114518;28;20495;-63
2022/11/25 01:07:10;;;;;;;20.65;8.27;;;11.70;99.90;;;11.90;100.00;100676.31;5114189;28;20050;-63
2022/11/25 01:09:39;;;;;;;25.73;8.73;;;11.70;99.90;;;11.96;100.00;100685.06;5114037;28;20139;-63
2022/11/25 01:12:08;;;;;;;24.55;8.65;;;11.80;99.90;;;11.87;100.00;100682.50;5096037;28;20420;-63
2022/11/25 01:14:38;;;;;;;22.45;8.15;;;11.80;99.90;;;11.84;100.00;100669.31;5114244;28;20070;-63
2022/11/25 01:17:07;;;;;;;29.77;8.88;;;11.80;99.90;;;11.91;100.00;100675.41;5114662;28;20090;-63
2022/11/25 01:19:38;;;;;;;19.52;8.10;;;11.80;99.90;;;11.99;100.00;100678.81;5114172;28;20055;-64
2022/11/25 01:22:07;;;;;;;19.23;7.25;;;11.80;99.90;;;11.95;100.00;100683.28;5114317;28;20043;-63
2022/11/25 01:24:36;;;;;;;24.90;8.27;;;11.80;99.90;;;12.03;100.00;100691.16;5114124;28;20044;-65
2022/11/25 01:27:04;;;;;;;26.23;9.25;;;11.80;99.90;;;11.99;100.00;100692.06;5095863;28;20051;-63
2022/11/25 01:29:33;;;;;;;18.70;7.70;;;11.80;99.90;;;11.87;100.00;100663.06;5095887;28;20036;-63
2022/11/25 01:32:03;;;;;;;21.67;7.82;;;11.80;99.90;;;12.03;100.00;100676.13;5113696;28;20043;-63
2022/11/25 01:34:33;;;;;;;23.30;7.32;;;11.90;99.90;;;11.96;100.00;100686.81;5114079;28;20126;-64
2022/11/25 01:37:02;;;;;;;21.20;7.18;;;11.80;99.90;;;11.89;100.00;100698.38;5113781;28;20385;-64
2022/11/25 01:39:31;;;;;;;24.00;6.57;;;11.70;99.90;;;11.95;100.00;100695.66;5113972;28;20070;-63
2022/11/25 01:42:01;;;;;;;23.63;7.03;;;11.70;99.90;;;11.93;100.00;100697.44;5095093;28;20139;-63
2022/11/25 01:44:32;;;;;;;18.23;6.43;;;11.70;99.90;;;11.94;100.00;100688.63;5113856;28;20062;-64
2022/11/25 01:47:11;;;;;;;20.00;6.30;;;11.70;99.90;;;11.92;100.00;100698.38;5113984;28;20043;-63
2022/11/25 01:49:44;;;;;;;20.73;7.50;;;11.70;99.90;;;11.90;100.00;100687.78;5095693;28;20454;-63
2022/11/25 01:52:18;;;;;;;18.13;5.93;;;11.70;99.90;;;11.82;100.00;100672.88;5095549;28;20548;-64
2022/11/25 01:54:53;;;;;;;16.40;5.90;;;11.70;99.90;;;11.96;100.00;100686.81;5113566;28;20040;-63
2022/11/25 01:57:27;;;;;;;13.55;6.03;;;11.80;99.90;;;11.95;100.00;100682.41;5095589;28;20055;-63
2022/11/25 02:00:00;;;;;;;21.15;6.50;;;11.70;99.90;;;11.99;100.00;100702.69;5095502;28;20136;-64
2022/11/25 02:02:33;;;;;;;19.45;5.90;;;11.70;99.90;;;11.98;100.00;100695.66;5113532;28;20039;-64
2022/11/25 02:05:04;;;;;;;16.73;5.45;;;11.80;99.90;;;11.82;100.00;100691.41;5095570;28;20101;-65
2022/11/25 02:07:37;;;;;;;14.55;5.20;;;11.70;99.90;;;11.78;100.00;100702.06;5113451;28;20050;-65
2022/11/25 02:10:12;;;;;;;16.88;5.65;;;11.60;99.90;;;11.18;100.00;100614.44;5113525;28;20504;-65
2022/11/25 02:12:46;;;;;;;15.43;5.40;;;11.60;99.90;;;11.84;100.00;100700.22;5095366;28;20523;-65
2022/11/25 02:15:15;;;;;;;16.02;5.35;;;11.60;99.90;;;11.82;100.00;100691.41;5113493;28;20117;-66
2022/11/25 02:17:46;;;;;;;14.43;5.47;;;11.60;99.90;;;11.84;100.00;100685.22;5095447;28;20043;-65
2022/11/25 02:20:16;;;;;;;16.95;5.13;;;11.60;99.90;;;11.84;100.00;100697.56;5095382;28;20051;-65
2022/11/25 02:22:55;;;;;;;16.88;5.88;;;11.60;99.90;;;11.68;100.00;100658.03;5113421;28;20070;-65
2022/11/25 02:25:28;;;;;;;9.63;4.93;;;11.70;99.90;;;11.88;99.60;100702.84;5095014;28;20089;-65
2022/11/25 02:28:02;;;;;;;15.80;5.05;;;11.70;99.90;;;11.92;99.59;100687.75;5095269;28;20132;-65
2022/11/25 02:30:30;;;;;;;11.18;5.40;;;11.70;99.90;;;11.84;99.05;100684.34;5113522;28;20481;-65
2022/11/25 02:33:00;;;;;;;15.68;5.13;;;11.70;99.90;;;11.92;99.13;100687.75;5113348;28;20044;-65
2022/11/25 02:35:33;;;;;;;14.88;5.35;;;11.70;99.90;;;11.90;98.56;100685.13;5095181;28;20048;-66
2022/11/25 02:38:10;;;;;;;10.38;5.00;;;11.70;99.90;;;11.98;98.31;100699.13;5095115;28;20052;-66
2022/11/25 02:40:46;;;;;;;13.98;5.18;;;11.80;99.90;;;11.88;98.33;100686.94;5095125;28;20071;-65
2022/11/25 02:43:16;;;;;;;9.73;5.28;;;11.80;99.90;;;12.00;98.33;100718.56;5095084;28;20047;-66
2022/11/25 02:45:53;;;;;;;12.52;5.03;;;11.80;99.90;;;12.04;98.15;100703.50;5095099;28;20043;-65
2022/11/25 02:48:21;;;;;;;10.48;4.72;;;11.80;99.90;;;11.99;97.93;100726.53;5113295;28;20481;-65
2022/11/25 02:51:13;;;;;;;14.52;5.25;;;11.80;99.90;;;11.95;97.91;100719.50;5094702;28;20040;-65
2022/11/25 02:53:42;;;;;;;13.35;4.97;;;11.70;99.90;;;11.95;97.94;100716.88;5115603;28;20069;-65
2022/11/25 02:56:13;;;;;;;14.63;4.85;;;11.70;99.90;;;11.94;97.58;100726.63;5098747;28;20044;-66
2022/11/25 02:58:42;;;;;;;10.05;4.95;;;11.70;99.90;;;11.86;97.26;100711.69;5098481;28;20138;-65
2022/11/25 03:01:10;;;;;;;13.30;4.60;;;11.70;99.90;;;11.97;96.87;100708.00;5098612;28;20075;-66
2022/11/25 03:03:39;;;;;;;11.43;4.60;;;11.80;99.90;;;12.09;96.49;100722.88;5098334;28;20139;-65
2022/11/25 03:06:12;;;;;;;9.52;4.65;;;11.80;99.90;;;11.96;96.08;100708.03;5116852;28;20032;-66
2022/11/25 03:08:40;;;;;;;12.57;5.25;;;11.80;99.90;;;12.02;96.32;100732.66;5098862;28;20131;-65
2022/11/25 03:11:13;;;;;;;11.43;5.30;;;11.80;99.90;;;11.94;96.57;100723.97;5098200;28;20059;-65
2022/11/25 03:13:41;;;;;;;14.23;5.07;;;11.80;99.90;;;12.00;96.56;100730.97;5098398;28;20082;-66
2022/11/25 03:16:10;;;;;;;8.13;4.85;;;11.80;99.90;;;11.82;96.23;100713.50;5098335;28;20039;-65
2022/11/25 03:18:38;;;;;;;11.02;4.80;;;11.80;99.90;;;11.94;96.44;100739.88;5116681;28;20067;-66
2022/11/25 03:21:07;;;;;;;12.05;5.30;;;11.70;99.90;;;11.90;96.19;100745.22;5116581;28;20028;-65
2022/11/25 03:23:35;;;;;;;11.23;4.90;;;11.70;99.90;;;11.81;96.22;100737.38;5098166;28;20134;-66
2022/11/25 03:26:07;;;;;;;11.15;4.90;;;11.60;99.90;;;11.79;95.91;100737.38;5116492;28;20042;-67
2022/11/25 03:28:36;;;;;;;10.73;5.45;;;11.60;99.90;;;11.76;95.81;100746.25;5098143;28;20496;-66
2022/11/25 03:31:10;;;;;;;12.45;5.50;;;11.60;99.90;;;11.74;95.36;100757.75;5098056;28;20378;-66
2022/11/25 03:33:38;;;;;;;11.02;5.50;;;11.60;99.90;;;11.68;95.45;100757.81;5097812;28;20447;-66
2022/11/25 03:36:08;;;;;;;9.55;5.05;;;11.50;99.90;;;11.57;95.87;100771.16;5115882;28;20575;-65
2022/11/25 03:38:36;;;;;;;14.43;6.20;;;11.40;99.90;;;11.40;95.79;100740.44;5116174;28;20502;-65
2022/11/25 03:41:05;;;;;;;11.77;5.50;;;11.40;99.90;;;11.61;95.98;100778.16;5116176;28;20039;-65
2022/11/25 03:43:34;;;;;;;15.43;6.53;;;11.40;99.90;;;11.50;96.07;100795.03;5097551;28;20116;-65
2022/11/25 03:46:04;;;;;;;11.13;5.70;;;11.30;99.90;;;11.46;96.24;100774.78;5097436;28;20046;-66
2022/11/25 03:48:33;;;;;;;9.68;6.45;;;11.30;99.90;;;11.39;96.44;100771.31;5116006;28;20044;-66
2022/11/25 03:51:01;;;;;;;11.60;6.25;;;11.20;99.90;;;11.47;96.49;100779.19;5097657;28;20082;-66
2022/11/25 03:53:29;;;;;;;12.90;5.90;;;11.20;99.90;;;11.23;96.21;100750.28;5097528;28;20488;-66
2022/11/25 03:56:00;;;;;;;9.85;5.70;;;11.20;99.90;;;11.40;96.32;100777.50;5097689;28;20039;-66
2022/11/25 03:58:29;;;;;;;8.82;5.85;;;11.20;99.90;;;11.43;96.42;100775.72;5097478;28;20104;-66
2022/11/25 04:01:00;;;;;;;10.70;5.53;;;11.20;99.90;;;11.36;96.32;100781.06;5097460;28;20040;-66
2022/11/25 04:03:31;;;;;;;12.02;5.78;;;11.20;99.90;;;11.36;96.67;100794.31;5097247;28;20101;-65
2022/11/25 04:06:00;;;;;;;14.10;5.72;;;11.10;99.90;;;11.35;96.52;100785.50;5096769;28;20051;-66
2022/11/25 04:08:29;;;;;;;12.70;5.85;;;11.10;99.90;;;11.27;96.46;100784.66;5097275;28;20097;-66
2022/11/25 04:10:58;;;;;;;13.27;5.05;;;11.10;99.90;;;11.34;96.62;100790.81;5096995;28;20082;-66
2022/11/25 04:13:29;;;;;;;11.93;5.07;;;11.10;99.90;;;11.32;96.50;100788.19;5097201;28;20492;-66
2022/11/25 04:15:58;;;;;;;12.02;5.50;;;11.10;99.90;;;11.31;96.43;100777.56;5115470;28;20051;-66
2022/11/25 04:18:27;;;;;;;12.63;5.55;;;11.10;99.90;;;11.31;96.40;100788.16;5096854;28;20086;-66
2022/11/25 04:20:59;;;;;;;7.28;5.10;;;11.10;99.90;;;11.23;96.66;100790.00;5097483;28;20374;-66
2022/11/25 04:23:28;;;;;;;8.80;5.07;;;11.00;99.90;;;11.26;96.38;100782.94;5097074;28;20047;-66
2022/11/25 04:26:01;;;;;;;10.55;4.97;;;11.10;99.90;;;11.24;96.36;100789.13;5096962;28;20639;-66
2022/11/25 04:28:37;;;;;;;10.82;5.18;;;11.10;99.90;;;11.27;96.49;100808.50;5097047;28;20058;-66
2022/11/25 04:31:07;;;;;;;9.05;4.80;;;11.10;99.90;;;11.27;96.21;100803.22;5096854;28;20043;-66
2022/11/25 04:33:39;;;;;;;11.57;4.72;;;11.10;99.90;;;11.28;96.12;100815.56;5096798;28;20094;-66
2022/11/25 04:36:10;;;;;;;9.48;4.90;;;11.10;99.90;;;11.25;96.33;100836.75;5096458;28;20093;-66
2022/11/25 04:38:38;;;;;;;9.10;4.70;;;11.10;99.90;;;11.25;96.26;100819.97;5096804;28;20079;-66
2022/11/25 04:41:08;;;;;;;7.65;4.38;;;11.10;99.90;;;11.27;96.59;100818.19;5096651;28;20047;-66
2022/11/25 04:43:40;;;;;;;7.80;4.32;;;11.10;99.90;;;11.26;96.73;100822.66;5096425;28;20048;-66
2022/11/25 04:46:16;;;;;;;10.43;4.55;;;11.10;99.90;;;11.26;96.08;100829.69;5096665;28;20047;-66
2022/11/25 04:48:48;;;;;;;8.20;4.47;;;11.00;99.90;;;11.25;96.15;100826.16;5096564;28;20043;-66
2022/11/25 04:51:18;;;;;;;8.85;4.65;;;11.00;99.90;;;11.27;96.05;100832.31;5096719;28;20443;-66
2022/11/25 04:53:50;;;;;;;9.48;5.00;;;11.00;99.90;;;11.23;95.95;100837.66;5096450;28;20036;-66
2022/11/25 04:56:20;;;;;;;5.20;4.05;;;11.00;99.90;;;11.02;95.98;100825.47;5096678;28;20054;-66
2022/11/25 05:01:41;;;;;;;5.57;4.03;;;11.00;99.90;;;11.21;95.67;100836.78;5096307;28;20052;-66
2022/11/25 05:04:21;;;;;;;10.00;4.30;;;11.00;99.90;;;11.10;95.69;100836.88;5096583;28;20056;-66
2022/11/25 05:06:51;;;;;;;6.57;4.43;;;10.90;99.90;;;11.13;95.79;100842.13;5096156;28;20051;-65
2022/11/25 05:09:21;;;;;;;5.95;4.32;;;11.00;99.90;;;11.18;95.71;100842.13;5095722;28;20051;-66
2022/11/25 05:12:00;;;;;;;8.15;4.43;;;10.90;99.90;;;11.19;95.64;100851.84;5096152;28;20043;-66
2022/11/25 05:14:29;;;;;;;8.98;4.63;;;11.00;99.90;;;11.20;95.45;100851.81;5095996;28;20047;-66
2022/11/25 05:16:57;;;;;;;7.25;4.43;;;11.00;99.90;;;11.20;95.44;100857.09;5113365;28;20126;-66
2022/11/25 05:19:26;;;;;;;13.82;5.32;;;11.00;99.90;;;9.98;95.11;100646.28;5096069;28;20062;-66
2022/11/25 05:21:55;;;;;;;9.10;4.55;;;11.00;99.90;;;11.16;94.94;100844.78;5095948;28;20040;-67
2022/11/25 05:24:25;;;;;;;11.75;5.07;;;11.00;99.90;;;11.15;94.77;100855.38;5096008;28;20105;-66
2022/11/25 05:26:53;;;;;;;10.30;4.75;;;11.10;99.90;;;11.29;94.68;100877.31;5095928;28;20469;-66
2022/11/25 05:29:22;;;;;;;8.65;4.72;;;11.10;99.90;;;11.29;94.65;100887.91;5095874;28;20050;-66
2022/11/25 05:31:50;;;;;;;8.93;5.03;;;11.10;99.90;;;11.27;94.62;100880.00;5095825;28;20443;-66
2022/11/25 05:34:19;;;;;;;8.85;4.50;;;11.10;99.90;;;11.11;94.51;100851.84;5095726;28;20485;-66
2022/11/25 05:36:48;;;;;;;9.48;4.78;;;11.10;99.90;;;10.62;94.03;100773.69;5095669;28;20043;-66
2022/11/25 05:39:22;;;;;;;10.32;5.22;;;11.10;99.90;;;11.30;94.38;100887.94;5095649;28;20044;-66
2022/11/25 05:42:14;;;;;;;10.07;5.15;;;11.10;99.90;;;10.86;94.09;100818.50;5095681;28;20635;-66
2022/11/25 05:44:43;;;;;;;11.02;5.30;;;11.10;99.90;;;11.24;93.99;100895.91;5095365;28;20043;-66
2022/11/25 05:47:11;;;;;;;11.57;5.28;;;11.00;99.90;;;11.24;93.79;100901.22;5113895;28;20064;-68
2022/11/25 05:49:41;;;;;;;10.73;5.15;;;11.00;99.90;;;11.17;93.72;100904.75;5095673;28;20093;-67
2022/11/25 05:52:09;;;;;;;8.70;4.88;;;11.00;99.90;;;11.19;93.63;100903.00;5113515;28;20450;-67
2022/11/25 05:54:48;;;;;;;10.88;4.90;;;11.00;99.90;;;11.15;93.72;100893.31;5095444;28;20485;-67
2022/11/25 05:57:23;;;;;;;9.55;5.05;;;10.90;99.90;;;11.15;93.64;100903.88;5095607;28;20134;-67
2022/11/25 05:59:55;;;;;;;12.70;5.40;;;10.90;99.90;;;11.16;93.63;100908.31;5095221;28;20052;-67
2022/11/25 06:02:42;;;;;;;7.43;5.53;;;10.90;99.90;;;11.04;93.58;100883.66;5113786;28;20077;-67
2022/11/25 06:05:13;;;;;;;9.52;5.25;;;10.90;99.90;;;11.16;93.17;100905.66;5095163;28;20051;-67
2022/11/25 06:07:42;;;;;;;11.15;5.60;;;11.00;99.90;;;11.19;93.12;100908.28;5095386;28;20484;-67
2022/11/25 06:10:13;;;;;;;10.38;5.63;;;11.00;99.90;;;11.17;92.87;100904.75;5095088;28;20062;-67
2022/11/25 06:12:42;;;;;;;10.25;5.50;;;11.00;99.90;;;11.17;92.71;100912.69;5095361;28;20400;-67
2022/11/25 06:15:11;;;;;;;11.85;5.30;;;11.00;99.90;;;11.10;92.23;100911.00;5095326;28;20073;-67
2022/11/25 06:17:40;;;;;;;10.88;5.35;;;10.90;99.90;;;10.93;92.23;100902.28;5095433;28;20075;-67
2022/11/25 06:20:14;;;;;;;8.93;5.45;;;10.90;99.90;;;11.07;91.91;100921.59;5095587;28;20592;-67
2022/11/25 06:22:42;;;;;;;14.45;5.50;;;10.90;99.90;;;10.82;91.95;100881.16;5095298;28;20047;-67
2022/11/25 06:25:12;;;;;;;12.48;5.30;;;10.90;99.90;;;11.03;92.06;100918.97;5113227;28;20409;-67
2022/11/25 06:27:42;;;;;;;11.30;6.25;;;10.80;99.90;;;11.04;91.86;100932.19;5096057;28;20044;-67
2022/11/25 06:30:31;;;;;;;9.57;5.25;;;10.90;99.90;;;11.10;91.93;100940.13;5099506;28;20056;-67
2022/11/25 06:33:11;;;;;;;19.60;6.65;;;10.90;99.90;;;11.18;91.83;100937.41;5099196;28;20044;-67
2022/11/25 06:35:41;;;;;;;16.67;6.83;;;10.90;99.90;;;11.21;91.58;100940.03;5099124;28;20054;-67
2022/11/25 06:38:09;;;;;;;13.55;6.75;;;11.00;99.90;;;11.23;91.37;100946.19;5117144;28;20293;-67
2022/11/25 06:40:39;;;;;;;12.10;7.38;;;11.00;99.90;;;11.21;91.18;100946.22;5117321;28;20084;-67
2022/11/25 06:43:07;;;;;;;16.98;7.60;;;11.00;99.90;;;11.03;91.22;100925.16;5117004;28;20039;-67
2022/11/25 06:45:36;;;;;;;17.88;7.50;;;11.00;99.90;;;11.20;90.86;100960.34;5116962;28;20078;-67
2022/11/25 06:48:05;;;;;;;14.75;7.43;;;11.00;99.90;;;11.16;90.90;100960.38;5116861;28;20042;-67
2022/11/25 06:50:33;;;;;;;14.35;7.65;;;11.00;99.90;;;11.14;90.61;100955.09;5116807;28;20134;-66
2022/11/25 06:53:02;;;;;;;13.77;7.60;;;10.90;99.90;;;10.92;90.92;100936.69;5117194;28;20053;-67
2022/11/25 06:55:30;;;;;;;14.27;7.25;;;10.90;99.90;;;11.06;90.71;100983.38;5098757;28;20134;-67
2022/11/25 06:58:00;;;;;;;14.52;7.50;;;10.90;99.90;;;11.10;90.34;100971.88;5116935;28;20042;-67
2022/11/25 07:00:48;;;;;;;8.75;5.15;;;10.90;99.90;;;10.94;90.14;100983.41;5116624;28;20542;-67
2022/11/25 07:03:16;;;;;;;9.27;4.97;;;10.80;99.90;;;10.88;90.47;100980.78;5116604;28;20039;-67
2022/11/25 07:05:45;;;;;;;11.82;4.13;;;10.70;99.90;;;10.93;90.55;100981.66;5116585;28;20267;-67
2022/11/25 07:08:13;;;;;;;11.02;4.25;;;10.70;99.90;;;10.75;90.46;100956.16;5116799;28;20043;-67
2022/11/25 07:10:41;;;;;;;9.27;4.35;;;10.70;99.90;;;10.95;90.46;100986.94;5116491;28;20047;-66
2022/11/25 07:13:11;;;;;;;11.93;4.78;;;10.70;99.90;;;11.03;90.36;100987.81;5116310;28;20079;-67
2022/11/25 07:15:39;;;;;;;12.60;4.47;;;10.70;99.90;;;10.96;90.10;100996.63;5098354;28;20492;-67
2022/11/25 07:18:08;;;;;;;11.27;4.25;;;10.70;99.90;;;11.00;90.20;100998.38;5116325;28;20035;-67
2022/11/25 07:20:36;;;;;;;10.48;4.50;;;10.70;99.90;;;10.93;90.26;101016.06;5116546;28;20071;-67
2022/11/25 07:23:05;;;;;;;9.05;4.30;;;10.70;99.90;;;10.90;90.04;101014.31;5116497;28;20036;-67
2022/11/25 07:25:33;;;;;;;12.32;4.82;;;10.70;99.90;;;10.77;89.84;100979.94;5098180;28;20404;-67
2022/11/25 07:28:02;;;;;;;12.60;5.38;;;10.70;99.90;;;10.94;89.82;101017.81;5098110;28;20445;-67
2022/11/25 07:30:31;;;;;;;9.00;4.47;;;10.70;99.90;;;10.94;89.90;101020.47;5116104;28;20047;-67
2022/11/25 07:33:20;;;;;;;12.10;4.60;;;10.70;99.90;;;10.86;89.78;101028.44;5115867;28;20047;-67
2022/11/25 07:35:48;;;;;;;11.43;4.68;;;10.70;99.90;;;10.68;90.17;100996.72;5115912;28;20073;-67
2022/11/25 07:38:16;;;;;;;8.30;4.30;;;10.60;99.90;;;10.89;90.48;101040.78;5097876;28;20093;-67
2022/11/25 07:40:45;;;;;;;11.18;4.43;;;10.60;99.90;;;10.98;90.34;101059.25;5114850;28;20050;-66
2022/11/25 07:43:13;;;;;;;9.10;4.32;;;10.70;99.90;;;11.00;89.95;101044.25;5097802;28;20062;-67
2022/11/25 07:45:45;;;;;;;6.88;4.43;;;10.80;99.90;;;11.08;89.64;101055.72;5097623;28;20439;-67
2022/11/25 07:48:13;;;;;;;8.40;4.77;;;10.90;99.90;;;11.21;89.23;101075.94;5116033;28;20048;-67
2022/11/25 07:50:41;;;;;;;9.57;4.47;;;10.90;99.90;;;11.08;89.08;101050.41;5115699;28;20277;-67
2022/11/25 07:53:09;;;;;;;10.77;4.57;;;11.00;99.90;;;11.26;88.86;101070.66;5115825;28;20131;-67
2022/11/25 07:55:38;;;;;;;10.25;5.43;;;11.10;99.90;;;11.20;88.37;101044.19;5097492;28;20473;-67
2022/11/25 07:58:06;;;;;;;11.80;5.13;;;11.10;99.90;;;11.54;87.72;101077.56;5097536;28;20393;-67
2022/11/25 08:00:35;;;;;;;12.20;5.20;;;11.20;99.90;;;11.60;87.01;101091.66;5115446;28;20058;-67
2022/11/25 08:03:04;;;;;;;11.35;4.70;;;11.30;99.90;;;11.69;86.68;101075.75;5115751;28;20447;-67
2022/11/25 08:05:33;;;;;;;14.88;4.90;;;11.40;99.90;;;11.70;86.17;101087.25;5115641;28;20040;-67
2022/11/25 08:08:02;;;;;;;9.73;5.03;;;11.50;99.90;;;11.75;86.27;101096.03;5115134;28;20126;-67
2022/11/25 08:10:30;;;;;;;12.98;4.93;;;11.50;99.90;;;11.90;85.85;101097.72;5115385;28;20485;-67
2022/11/25 08:12:59;;;;;;;10.05;4.68;;;11.60;99.90;;;11.94;85.78;101087.09;5115476;28;20036;-67
2022/11/25 08:15:27;;;;;;;8.88;4.30;;;11.70;99.90;;;12.23;85.50;101108.97;5115052;28;20039;-67
2022/11/25 08:17:56;;;;;;;12.00;4.68;;;11.90;99.90;;;12.35;85.09;101108.88;5096751;28;20362;-67
2022/11/25 08:20:25;;;;;;;10.45;4.85;;;12.10;99.90;;;12.55;85.07;101116.69;5115275;28;20134;-66
2022/11/25 08:22:54;;;;;;;13.02;5.30;;;12.30;99.90;;;12.66;84.83;101107.72;5115372;28;20043;-67
2022/11/25 08:25:22;;;;;;;11.20;4.68;;;12.40;99.90;;;12.73;85.08;101120.94;5097042;28;20053;-67
2022/11/25 08:27:51;;;;;;;9.25;4.53;;;12.50;99.90;;;12.85;85.80;101118.19;5096951;28;20054;-67
2022/11/25 08:30:24;;;;;;;10.43;5.10;;;12.60;99.90;;;13.04;85.51;101120.69;5096886;28;20089;-66
2022/11/25 08:32:53;;;;;;;10.75;4.93;;;12.70;99.90;;;13.17;85.08;101111.69;5114922;28;20032;-67
2022/11/25 08:35:21;;;;;;;9.50;4.45;;;12.90;99.90;;;13.30;84.06;101115.94;5115083;28;20036;-67
2022/11/25 08:37:51;;;;;;;10.07;4.30;;;13.10;99.90;;;13.43;83.28;101106.06;5096812;28;20401;-67
2022/11/25 08:40:20;;;;;;;15.50;5.20;;;13.20;99.90;;;13.72;82.03;101135.81;5114803;28;20042;-67
2022/11/25 08:42:48;;;;;;;11.15;4.75;;;13.40;99.90;;;13.86;81.39;101111.72;5114706;28;20289;-66
2022/11/25 08:45:17;;;;;;;10.07;4.35;;;13.70;99.90;;;14.20;80.47;101148.44;5114999;28;20070;-67
2022/11/25 08:47:45;;;;;;;10.30;5.15;;;13.90;99.90;;;14.41;79.13;101144.59;5114643;28;20127;-67
2022/11/25 08:50:15;;;;;;;11.52;5.05;;;14.20;99.90;;;14.59;77.93;101154.06;5114356;28;20048;-67
2022/11/25 08:52:43;;;;;;;11.27;4.57;;;14.40;99.90;;;14.78;76.89;101164.41;5114310;28;20032;-67
2022/11/25 08:55:13;;;;;;;10.27;4.97;;;14.50;99.90;;;14.76;75.96;101126.25;5114579;28;20130;-66
2022/11/25 08:57:41;;;;;;;11.90;4.97;;;14.60;99.90;;;15.03;75.18;101173.72;5114655;28;20084;-67
2022/11/25 09:00:12;;;;;;;7.43;4.07;;;14.80;99.90;;;15.15;74.85;101170.84;5114313;28;20090;-67
2022/11/25 09:02:40;;;;;;;13.40;4.93;;;14.90;99.90;;;15.39;73.55;101177.47;5114412;28;20507;-67
2022/11/25 09:05:12;;;;;;;11.55;4.53;;;15.10;99.90;;;15.48;72.73;101181.81;5114566;28;20046;-67
2022/11/25 09:07:41;;;;;;;9.18;4.35;;;15.20;99.90;;;15.73;72.33;101185.75;5114275;28;20043;-67
2022/11/25 09:10:16;;;;;;;10.80;5.13;;;15.40;99.90;;;16.00;71.42;101187.84;5114078;28;20101;-67
2022/11/25 09:12:44;;;;;;;8.95;3.97;;;15.70;99.90;;;16.13;70.91;101195.53;5114190;28;20046;-67
2022/11/25 09:15:13;;;;;;;7.57;3.90;;;15.90;99.90;;;16.25;69.72;101199.72;5114283;28;20082;-67
2022/11/25 09:17:41;;;;;;;9.90;4.20;;;16.00;99.90;;;16.41;69.47;101201.16;5114037;28;20370;-67
2022/11/25 09:20:10;;;;;;;10.25;4.22;;;16.10;99.90;;;16.54;68.59;101205.31;5113933;28;20036;-67
2022/11/25 09:22:39;;;;;;;8.93;4.25;;;16.40;99.90;;;16.67;68.50;101208.56;5113892;28;20520;-67
2022/11/25 09:25:08;;;;;;;10.15;4.85;;;16.40;99.90;;;16.66;67.76;101218.41;5114183;28;20496;-67
2022/11/25 09:27:38;;;;;;;8.63;4.47;;;16.50;99.90;;;16.86;67.96;101228.59;5113718;28;20522;-67
2022/11/25 09:30:08;;;;;;;11.82;4.53;;;16.60;99.90;;;16.97;66.53;101226.53;5095798;28;20142;-67
2022/11/25 09:32:36;;;;;;;11.23;4.38;;;16.70;99.90;;;17.08;66.84;101241.41;5114039;28;20062;-67
2022/11/25 09:35:06;;;;;;;10.60;4.90;;;16.80;99.90;;;17.15;66.12;101239.44;5113706;28;20040;-67
2022/11/25 09:37:34;;;;;;;8.98;4.35;;;16.90;99.90;;;17.20;66.09;101245.56;5113739;28;20120;-67
2022/11/25 09:40:04;;;;;;;15.15;5.40;;;17.00;99.90;;;17.25;65.68;101248.13;5114029;28;20400;-67
2022/11/25 09:48:51;;;;;;;12.70;5.65;;;17.10;99.90;;;17.30;65.51;101257.78;5113824;28;20043;-67
2022/11/25 09:51:23;;;;;;;11.15;4.70;;;17.10;99.90;;;17.36;65.74;101270.09;5113773;28;20404;-67
2022/11/25 09:53:54;;;;;;;10.18;4.90;;;17.10;99.90;;;17.49;65.92;101271.56;5113577;28;20058;-67
2022/11/25 09:56:33;;;;;;;13.38;4.70;;;17.20;99.90;;;17.47;65.26;101276.03;5113506;28;20032;-67
2022/11/25 09:59:11;;;;;;;11.25;4.78;;;17.20;99.90;;;16.78;65.42;101185.16;5113796;28;20067;-67
2022/11/25 10:01:48;;;;;;;12.18;4.82;;;17.20;99.90;;;17.35;65.88;101277.25;5113398;28;20409;-67
2022/11/25 10:04:24;;;;;;;14.57;5.50;;;17.10;99.90;;;17.43;65.40;101272.56;5113286;28;20046;-67
2022/11/25 10:06:59;;;;;;;13.82;5.78;;;17.20;99.90;;;17.62;65.54;101284.59;5113756;28;20123;-66
2022/11/25 10:09:32;;;;;;;15.60;5.13;;;17.30;99.90;;;17.69;65.04;101290.66;5113184;28;20126;-67
2022/11/25 10:12:10;;;;;;;13.70;5.75;;;17.40;99.90;;;17.49;65.11;101282.28;5113356;28;20093;-67
2022/11/25 10:14:48;;;;;;;16.23;5.10;;;17.30;99.90;;;17.34;65.45;101288.00;5113246;28;20412;-67
2022/11/25 10:17:28;;;;;;;15.52;5.45;;;17.10;99.90;;;17.53;65.68;101291.97;5113363;28;20487;-67
2022/11/25 10:20:02;;;;;;;16.08;5.20;;;17.20;99.90;;;17.67;65.66;101300.53;5113303;28;20050;-67
2022/11/25 10:22:34;;;;;;;14.25;5.20;;;17.30;99.90;;;17.70;65.49;101303.09;5113300;28;20062;-67
2022/11/25 10:25:14;;;;;;;13.30;5.22;;;17.40;99.90;;;17.11;65.65;101213.72;5095010;28;20146;-67
2022/11/25 10:27:48;;;;;;;16.17;5.47;;;17.40;99.90;;;17.59;65.72;101299.84;5113456;28;20044;-67
2022/11/25 10:30:22;;;;;;;14.63;5.75;;;17.30;99.90;;;17.58;65.25;101314.13;5113208;28;20114;-67
2022/11/25 10:32:55;;;;;;;12.07;4.78;;;17.30;99.90;;;17.31;66.00;101322.81;5095135;28;20040;-67